createdAt,value
2018-06-23T00:01:53.414Z,30.57
2018-06-23T00:04:21.833Z,22.40
2018-06-23T00:06:50.128Z,21.07
2018-06-23T00:09:18.636Z,15.17
2018-06-23T00:11:47.606Z,16.23
2018-06-23T00:14:20.246Z,9.10
2018-06-23T00:16:49.462Z,10.43
2018-06-23T00:19:20.261Z,12.80
2018-06-23T00:21:50.926Z,10.47
2018-06-23T00:24:19.416Z,14.00
2018-06-23T00:26:48.442Z,14.80
2018-06-23T00:29:16.749Z,12.23
2018-06-23T00:31:45.075Z,13.20
2018-06-23T00:34:13.450Z,6.40
2018-06-23T00:36:41.783Z,14.13
2018-06-23T00:39:10.066Z,11.03
2018-06-23T00:41:38.410Z,10.30
2018-06-23T00:44:06.889Z,12.73
2018-06-23T00:46:36.262Z,12.70
2018-06-23T00:49:08.075Z,11.53
2018-06-23T00:51:38.213Z,12.13
2018-06-23T00:54:08.041Z,11.03
2018-06-23T00:56:40.115Z,12.27
2018-06-23T00:59:15.293Z,9.83
2018-06-23T01:01:44.799Z,12.67
2018-06-23T01:04:15.449Z,14.80
2018-06-23T01:06:46.452Z,14.07
2018-06-23T01:09:21.534Z,12.00
2018-06-23T01:11:50.075Z,13.00
2018-06-23T01:14:18.343Z,15.47
2018-06-23T01:16:46.626Z,12.87
2018-06-23T01:19:15.019Z,14.97
2018-06-23T01:21:43.326Z,16.77
2018-06-23T01:24:11.695Z,13.07
2018-06-23T01:26:40.199Z,13.73
2018-06-23T01:29:08.520Z,11.53
2018-06-23T01:31:36.929Z,12.33
2018-06-23T01:34:05.392Z,10.30
2018-06-23T01:36:33.658Z,12.53
2018-06-23T01:39:03.204Z,15.83
2018-06-23T01:41:31.333Z,12.27
2018-06-23T01:43:59.609Z,16.73
2018-06-23T01:46:27.866Z,16.73
2018-06-23T01:48:56.912Z,14.63
2018-06-23T01:51:26.690Z,16.27
2018-06-23T01:53:54.978Z,13.57
2018-06-23T01:56:23.270Z,13.67
2018-06-23T01:58:51.707Z,13.33
2018-06-23T02:01:22.301Z,14.73
2018-06-23T02:03:53.391Z,14.27
2018-06-23T02:06:21.774Z,13.93
2018-06-23T02:08:50.699Z,12.97
2018-06-23T02:11:18.974Z,14.77
2018-06-23T02:13:47.330Z,18.70
2018-06-23T02:16:20.906Z,14.97
2018-06-23T02:18:56.403Z,22.57
2018-06-23T02:21:30.087Z,19.27
2018-06-23T02:24:04.902Z,15.17
2018-06-23T02:26:38.849Z,19.13
2018-06-23T02:29:15.853Z,17.20
2018-06-23T02:31:49.563Z,15.47
2018-06-23T02:34:23.263Z,28.50
2018-06-23T02:36:53.146Z,16.03
2018-06-23T02:39:21.482Z,32.57
2018-06-23T02:41:52.829Z,17.87
2018-06-23T02:44:24.238Z,17.77
2018-06-23T02:46:55.985Z,16.27
2018-06-23T02:49:27.743Z,17.17
2018-06-23T02:51:58.455Z,21.83
2018-06-23T02:54:31.209Z,19.70
2018-06-23T02:57:03.275Z,18.00
2018-06-23T02:59:33.058Z,15.00
2018-06-23T03:02:05.233Z,14.67
2018-06-23T03:04:37.113Z,15.57
2018-06-23T03:07:05.798Z,18.53
2018-06-23T03:09:34.286Z,19.40
2018-06-23T03:12:05.110Z,20.03
2018-06-23T03:14:37.175Z,15.17
2018-06-23T03:17:14.501Z,19.00
2018-06-23T03:19:49.130Z,18.53
2018-06-23T03:22:21.214Z,20.10
2018-06-23T03:24:49.448Z,17.20
2018-06-23T03:27:17.788Z,18.10
2018-06-23T03:29:46.073Z,16.37
2018-06-23T03:32:15.653Z,20.30
2018-06-23T03:34:46.251Z,18.37
2018-06-23T03:37:14.603Z,17.30
2018-06-23T03:39:42.950Z,17.27
2018-06-23T03:42:11.213Z,21.93
2018-06-23T03:44:39.499Z,19.87
2018-06-23T03:47:07.765Z,18.23
2018-06-23T03:49:38.202Z,19.10
2018-06-23T03:52:06.511Z,21.07
2018-06-23T03:54:34.792Z,17.13
2018-06-23T03:57:03.158Z,24.10
2018-06-23T03:59:31.459Z,22.83
2018-06-23T04:01:59.763Z,18.00
2018-06-23T04:04:28.022Z,19.77
2018-06-23T04:06:56.322Z,19.90
2018-06-23T04:09:24.665Z,19.30
2018-06-23T04:11:54.536Z,17.43
2018-06-23T04:14:24.513Z,20.63
2018-06-23T04:16:53.068Z,14.40
2018-06-23T04:19:21.338Z,23.57
2018-06-23T04:21:49.790Z,15.50
2018-06-23T04:24:18.072Z,18.90
2018-06-23T04:26:46.374Z,19.20
2018-06-23T04:29:17.245Z,17.97
2018-06-23T04:31:49.288Z,21.53
2018-06-23T04:34:20.098Z,20.63
2018-06-23T04:36:48.431Z,17.40
2018-06-23T04:39:17.261Z,20.17
2018-06-23T04:41:45.685Z,15.50
2018-06-23T04:44:13.953Z,20.53
2018-06-23T04:46:42.258Z,19.43
2018-06-23T04:49:10.560Z,16.30
2018-06-23T04:51:38.885Z,15.80
2018-06-23T04:54:09.011Z,20.03
2018-06-23T04:56:37.946Z,15.03
2018-06-23T04:59:06.519Z,21.63
2018-06-23T05:01:34.793Z,22.47
2018-06-23T05:04:03.079Z,16.97
2018-06-23T05:06:31.339Z,15.83
2018-06-23T05:08:59.614Z,16.37
2018-06-23T05:11:27.902Z,18.17
2018-06-23T05:13:56.287Z,20.30
2018-06-23T05:16:24.560Z,28.00
2018-06-23T05:18:52.881Z,22.87
2018-06-23T05:21:21.197Z,19.43
2018-06-23T05:23:49.505Z,17.63
2018-06-23T05:26:19.372Z,19.77
2018-06-23T05:28:49.190Z,24.23
2018-06-23T05:31:17.626Z,20.30
2018-06-23T05:33:45.943Z,27.50
2018-06-23T05:36:13.966Z,18.47
2018-06-23T05:38:43.787Z,17.50
2018-06-23T05:41:12.241Z,22.43
2018-06-23T05:43:41.462Z,18.10
2018-06-23T05:46:13.769Z,18.27
2018-06-23T05:48:44.227Z,21.07
2018-06-23T05:51:16.861Z,22.47
2018-06-23T05:53:45.707Z,23.63
2018-06-23T05:56:17.265Z,18.90
2018-06-23T05:58:47.831Z,19.93
2018-06-23T06:01:16.298Z,20.70
2018-06-23T06:03:44.599Z,19.20
2018-06-23T06:06:15.794Z,14.90
2018-06-23T06:08:44.238Z,16.20
2018-06-23T06:11:12.651Z,18.67
2018-06-23T06:13:43.347Z,18.13
2018-06-23T06:16:11.691Z,20.73
2018-06-23T06:18:39.969Z,21.63
2018-06-23T06:21:08.261Z,21.10
2018-06-23T06:23:36.557Z,18.27
2018-06-23T06:26:04.852Z,15.97
2018-06-23T06:28:33.558Z,20.83
2018-06-23T06:31:03.597Z,16.33
2018-06-23T06:33:31.966Z,18.20
2018-06-23T06:36:00.262Z,16.87
2018-06-23T06:38:28.563Z,17.23
2018-06-23T06:40:56.899Z,14.37
2018-06-23T06:43:27.134Z,13.40
2018-06-23T06:45:55.600Z,18.43
2018-06-23T06:48:24.968Z,17.03
2018-06-23T06:50:53.364Z,16.80
2018-06-23T06:53:21.661Z,16.23
2018-06-23T06:55:49.959Z,14.77
2018-06-23T06:58:18.239Z,13.77
2018-06-23T07:00:46.527Z,19.50
2018-06-23T07:03:14.845Z,18.60
2018-06-23T07:05:42.917Z,14.13
2018-06-23T07:08:11.227Z,14.17
2018-06-23T07:10:39.811Z,13.37
2018-06-23T07:13:09.396Z,15.87
2018-06-23T07:15:39.763Z,16.07
2018-06-23T07:18:08.218Z,10.17
2018-06-23T07:20:36.501Z,10.70
2018-06-23T07:23:04.810Z,13.67
2018-06-23T07:25:33.103Z,11.73
2018-06-23T07:28:01.405Z,13.07
2018-06-23T07:30:29.699Z,9.70
2018-06-23T07:32:58.148Z,11.60
2018-06-23T07:35:27.276Z,11.53
2018-06-23T07:37:56.627Z,8.63
2018-06-23T07:40:24.999Z,10.83
2018-06-23T07:42:53.342Z,13.87
2018-06-23T07:45:22.214Z,7.07
2018-06-23T07:47:52.988Z,8.17
2018-06-23T07:50:21.250Z,9.10
2018-06-23T07:52:49.556Z,10.57
2018-06-23T07:55:17.837Z,9.43
2018-06-23T07:57:46.138Z,9.93
2018-06-23T08:00:14.585Z,8.57
2018-06-23T08:02:42.966Z,10.50
2018-06-23T08:05:11.236Z,10.17
2018-06-23T08:07:39.669Z,11.30
2018-06-23T08:10:07.979Z,9.33
2018-06-23T08:12:36.105Z,8.60
2018-06-23T08:15:06.890Z,9.30
2018-06-23T08:17:36.311Z,10.23
2018-06-23T08:20:04.647Z,6.77
2018-06-23T08:22:33.203Z,10.80
2018-06-23T08:25:01.477Z,7.30
2018-06-23T08:27:29.822Z,6.70
2018-06-23T08:29:58.231Z,10.57
2018-06-23T08:32:26.694Z,6.87
2018-06-23T08:34:57.466Z,8.30
2018-06-23T08:37:25.851Z,6.53
2018-06-23T08:39:54.189Z,7.50
2018-06-23T08:42:22.474Z,10.60
2018-06-23T08:44:51.147Z,7.97
2018-06-23T08:47:19.463Z,4.73
2018-06-23T08:49:47.854Z,9.17
2018-06-23T08:52:17.474Z,10.90
2018-06-23T08:54:45.810Z,8.23
2018-06-23T08:57:14.102Z,7.43
2018-06-23T08:59:42.605Z,7.47
2018-06-23T09:02:10.875Z,6.03
2018-06-23T09:04:39.202Z,5.17
2018-06-23T09:07:07.474Z,6.33
2018-06-23T09:09:35.909Z,7.13
2018-06-23T09:12:04.232Z,8.40
2018-06-23T09:14:33.089Z,7.63
2018-06-23T09:17:01.657Z,6.00
2018-06-23T09:19:30.003Z,8.17
2018-06-23T09:21:58.431Z,5.07
2018-06-23T09:24:26.742Z,7.80
2018-06-23T09:26:55.121Z,8.80
2018-06-23T09:29:23.451Z,6.20
2018-06-23T09:31:51.734Z,6.33
2018-06-23T09:34:20.092Z,8.93
2018-06-23T09:36:48.366Z,5.40
2018-06-23T09:39:16.757Z,6.33
2018-06-23T09:41:45.040Z,5.73
2018-06-23T09:44:13.569Z,7.53
2018-06-23T09:46:41.956Z,6.33
2018-06-23T09:49:10.484Z,4.17
2018-06-23T09:51:38.822Z,6.37
2018-06-23T09:54:07.253Z,7.37
2018-06-23T09:56:36.647Z,7.43
2018-06-23T09:59:05.280Z,6.37
2018-06-23T10:01:33.647Z,5.00
2018-06-23T10:04:01.926Z,7.73
2018-06-23T10:06:30.246Z,6.50
2018-06-23T10:08:58.630Z,8.67
2018-06-23T10:11:26.922Z,6.50
2018-06-23T10:13:55.199Z,6.27
2018-06-23T10:16:23.541Z,7.13
2018-06-23T10:18:51.542Z,8.83
2018-06-23T10:21:19.822Z,7.77
2018-06-23T10:23:48.144Z,7.60
2018-06-23T10:26:16.452Z,10.27
2018-06-23T10:28:44.786Z,9.30
2018-06-23T10:31:13.102Z,9.00
2018-06-23T10:33:41.530Z,8.60
2018-06-23T10:36:11.102Z,8.00
2018-06-23T10:38:40.042Z,7.47
2018-06-23T10:41:08.213Z,8.70
2018-06-23T10:43:36.543Z,6.43
2018-06-23T10:46:05.642Z,6.93
2018-06-23T10:48:34.417Z,7.63
2018-06-23T10:51:02.883Z,8.10
2018-06-23T10:53:31.221Z,6.23
2018-06-23T10:55:59.518Z,10.37
2018-06-23T10:58:27.853Z,7.77
2018-06-23T11:00:56.134Z,8.70
2018-06-23T11:03:24.685Z,11.30
2018-06-23T11:05:53.109Z,9.07
2018-06-23T11:08:21.391Z,8.60
2018-06-23T11:10:49.688Z,7.60
2018-06-23T11:13:17.994Z,10.57
2018-06-23T11:15:46.265Z,7.00
2018-06-23T11:18:14.563Z,6.37
2018-06-23T11:20:42.858Z,8.67
2018-06-23T11:23:11.426Z,8.33
2018-06-23T11:25:39.719Z,6.33
2018-06-23T11:28:08.045Z,10.00
2018-06-23T11:30:36.309Z,8.00
2018-06-23T11:33:05.067Z,8.37
2018-06-23T11:35:33.405Z,7.77
2018-06-23T11:38:02.366Z,7.10
2018-06-23T11:40:30.634Z,8.70
2018-06-23T11:43:01.742Z,8.63
2018-06-23T11:45:30.022Z,8.43
2018-06-23T11:47:59.213Z,6.03
2018-06-23T11:50:27.870Z,8.30
2018-06-23T11:52:56.126Z,8.27
2018-06-23T11:55:24.476Z,6.57
2018-06-23T11:57:52.732Z,8.50
2018-06-23T12:00:21.015Z,7.13
2018-06-23T12:02:49.042Z,9.03
2018-06-23T12:05:17.330Z,9.57
2018-06-23T12:07:45.619Z,5.93
2018-06-23T12:10:13.933Z,7.93
2018-06-23T12:12:42.117Z,9.23
2018-06-23T12:15:10.409Z,7.10
2018-06-23T12:17:38.672Z,8.03
2018-06-23T12:20:07.034Z,10.80
2018-06-23T12:22:35.254Z,8.33
2018-06-23T12:25:03.782Z,7.07
2018-06-23T12:27:33.437Z,9.17
2018-06-23T12:30:01.750Z,8.50
2018-06-23T12:32:30.636Z,7.70
2018-06-23T12:34:58.992Z,10.47
2018-06-23T12:37:27.550Z,5.57
2018-06-23T12:39:55.863Z,11.60
2018-06-23T12:42:24.186Z,5.17
2018-06-23T12:44:52.496Z,8.50
2018-06-23T12:47:20.790Z,10.80
2018-06-23T12:49:49.087Z,5.97
2018-06-23T12:52:17.381Z,6.03
2018-06-23T12:54:45.706Z,5.17
2018-06-23T12:57:14.083Z,4.07
2018-06-23T12:59:42.370Z,7.90
2018-06-23T13:02:10.651Z,7.17
2018-06-23T13:04:38.912Z,12.30
2018-06-23T13:07:07.243Z,6.53
2018-06-23T13:09:35.861Z,8.47
2018-06-23T13:12:04.143Z,11.20
2018-06-23T13:14:32.439Z,8.53
2018-06-23T13:17:00.770Z,7.37
2018-06-23T13:19:29.069Z,6.10
2018-06-23T13:21:57.373Z,6.43
2018-06-23T13:24:25.658Z,6.53
2018-06-23T13:26:54.622Z,4.20
2018-06-23T13:29:23.959Z,6.73
2018-06-23T13:31:52.379Z,6.67
2018-06-23T13:34:20.759Z,6.13
2018-06-23T13:36:49.049Z,6.23
2018-06-23T13:39:17.341Z,10.63
2018-06-23T13:41:45.345Z,10.37
2018-06-23T13:44:13.627Z,10.27
2018-06-23T13:46:41.918Z,11.03
2018-06-23T13:49:10.239Z,5.53
2018-06-23T13:51:38.664Z,8.83
2018-06-23T13:54:07.137Z,10.90
2018-06-23T13:56:35.751Z,8.63
2018-06-23T13:59:04.187Z,12.20
2018-06-23T14:01:32.642Z,8.87
2018-06-23T14:04:00.974Z,16.57
2018-06-23T14:06:29.555Z,11.40
2018-06-23T14:08:58.883Z,5.33
2018-06-23T14:11:27.160Z,10.60
2018-06-23T14:13:55.734Z,12.27
2018-06-23T14:16:24.010Z,9.07
2018-06-23T14:18:54.331Z,9.53
2018-06-23T14:21:22.855Z,12.80
2018-06-23T14:23:51.150Z,9.50
2018-06-23T14:26:19.293Z,9.47
2018-06-23T14:28:47.566Z,12.33
2018-06-23T14:31:16.003Z,9.57
2018-06-23T14:33:45.104Z,13.27
2018-06-23T14:36:13.930Z,8.47
2018-06-23T14:38:42.282Z,11.77
2018-06-23T14:41:10.602Z,11.97
2018-06-23T14:43:39.123Z,14.77
2018-06-23T14:46:07.461Z,14.20
2018-06-23T14:48:36.021Z,13.43
2018-06-23T14:51:04.333Z,13.70
2018-06-23T14:53:32.691Z,11.27
2018-06-23T14:56:01.011Z,11.63
2018-06-23T14:58:29.413Z,10.13
2018-06-23T15:00:57.892Z,14.77
2018-06-23T15:03:26.406Z,12.00
2018-06-23T15:05:55.288Z,11.30
2018-06-23T15:08:35.539Z,8.27
2018-06-23T15:11:16.528Z,10.87
2018-06-23T15:13:44.886Z,15.63
2018-06-23T15:16:13.186Z,12.20
2018-06-23T15:18:42.399Z,11.43
2018-06-23T15:21:11.987Z,11.23
2018-06-23T15:23:40.433Z,11.43
2018-06-23T15:26:08.754Z,10.60
2018-06-23T15:28:37.279Z,14.33
2018-06-23T15:31:05.638Z,13.80
2018-06-23T15:33:34.146Z,12.50
2018-06-23T15:36:02.925Z,13.37
2018-06-23T15:38:32.734Z,11.20
2018-06-23T15:41:01.762Z,9.87
2018-06-23T15:43:29.942Z,11.17
2018-06-23T15:45:59.386Z,11.77
2018-06-23T15:48:28.462Z,8.30
2018-06-23T15:50:57.298Z,11.67
2018-06-23T15:53:26.137Z,11.80
2018-06-23T15:55:55.228Z,12.10
2018-06-23T15:58:23.678Z,11.07
2018-06-23T16:00:52.347Z,8.33
2018-06-23T16:03:20.793Z,12.17
2018-06-23T16:05:49.770Z,11.37
2018-06-23T16:08:18.168Z,8.53
2018-06-23T16:10:46.924Z,12.67
2018-06-23T16:13:15.230Z,12.93
2018-06-23T16:15:43.646Z,10.73
2018-06-23T16:18:12.538Z,10.47
2018-06-23T16:20:41.787Z,8.37
2018-06-23T16:23:10.325Z,10.07
2018-06-23T16:25:38.678Z,23.53
2018-06-23T16:28:08.126Z,19.57
2018-06-23T16:30:36.397Z,14.17
2018-06-23T16:33:04.996Z,10.83
2018-06-23T16:35:34.059Z,8.10
2018-06-23T16:38:02.381Z,9.87
2018-06-23T16:40:32.515Z,10.83
2018-06-23T16:43:01.043Z,9.77
2018-06-23T16:45:30.766Z,8.70
2018-06-23T16:48:02.943Z,8.20
2018-06-23T16:50:34.701Z,7.30
2018-06-23T16:53:04.558Z,8.30
2018-06-23T16:55:32.863Z,14.77
2018-06-23T16:58:01.296Z,9.90
2018-06-23T17:00:29.639Z,12.13
2018-06-23T17:02:58.027Z,31.30
2018-06-23T17:05:26.505Z,11.43
2018-06-23T17:08:03.076Z,12.67
2018-06-23T17:10:31.456Z,7.23
2018-06-23T17:12:59.755Z,9.20
2018-06-23T17:15:28.011Z,10.43
2018-06-23T17:17:56.955Z,7.93
2018-06-23T17:20:25.789Z,8.57
2018-06-23T17:22:54.245Z,8.67
2018-06-23T17:25:23.131Z,10.70
2018-06-23T17:27:55.185Z,10.00
2018-06-23T17:30:24.350Z,10.67
2018-06-23T17:32:53.604Z,7.77
2018-06-23T17:35:21.975Z,6.90
2018-06-23T17:37:50.697Z,8.20
2018-06-23T17:40:18.977Z,7.13
2018-06-23T17:42:48.563Z,8.73
2018-06-23T17:45:16.951Z,6.70
2018-06-23T17:47:45.273Z,10.47
2018-06-23T17:50:14.183Z,7.93
2018-06-23T17:52:42.669Z,7.33
2018-06-23T17:55:10.758Z,10.90
2018-06-23T17:57:39.574Z,7.37
2018-06-23T18:00:08.851Z,10.07
2018-06-23T18:02:37.752Z,8.60
2018-06-23T18:05:06.673Z,8.67
2018-06-23T18:07:35.611Z,4.73
2018-06-23T18:10:04.000Z,7.90
2018-06-23T18:12:32.308Z,5.63
2018-06-23T18:15:04.076Z,8.43
2018-06-23T18:17:33.475Z,7.13
2018-06-23T18:20:01.883Z,8.00
2018-06-23T18:22:30.158Z,7.60
2018-06-23T18:24:58.554Z,6.43
2018-06-23T18:27:26.803Z,7.43
2018-06-23T18:29:55.147Z,9.87
2018-06-23T18:32:23.430Z,9.77
2018-06-23T18:34:51.730Z,8.73
2018-06-23T18:37:20.746Z,7.80
2018-06-23T18:39:48.850Z,8.83
2018-06-23T18:42:19.260Z,7.80
2018-06-23T18:44:48.891Z,6.37
2018-06-23T18:47:18.318Z,5.10
2018-06-23T18:49:49.115Z,9.20
2018-06-23T18:52:17.826Z,10.87
2018-06-23T18:54:46.707Z,10.40
2018-06-23T18:57:15.916Z,9.80
2018-06-23T18:59:44.186Z,8.13
2018-06-23T19:02:12.446Z,9.53
2018-06-23T19:04:40.842Z,7.30
2018-06-23T19:07:09.147Z,8.57
2018-06-23T19:09:37.422Z,8.67
2018-06-23T19:12:06.179Z,7.70
2018-06-23T19:14:34.446Z,7.23
2018-06-23T19:17:02.779Z,8.57
2018-06-23T19:19:32.862Z,9.47
2018-06-23T19:22:01.250Z,7.43
2018-06-23T19:24:29.542Z,7.73
2018-06-23T19:26:57.818Z,7.40
2018-06-23T19:29:26.200Z,9.27
2018-06-23T19:31:54.509Z,49.60
2018-06-23T19:34:22.829Z,27.23
2018-06-23T19:36:50.836Z,9.53
2018-06-23T19:39:19.770Z,11.53
2018-06-23T19:41:49.131Z,8.47
2018-06-23T19:44:17.446Z,7.43
2018-06-23T19:46:45.707Z,7.37
2018-06-23T19:49:13.982Z,10.67
2018-06-23T19:51:43.508Z,8.07
2018-06-23T19:54:12.128Z,10.00
2018-06-23T19:56:41.455Z,7.57
2018-06-23T19:59:11.036Z,6.70
2018-06-23T20:01:39.654Z,19.80
2018-06-23T20:04:07.915Z,21.87
2018-06-23T20:06:38.238Z,8.13
2018-06-23T20:09:08.061Z,11.53
2018-06-23T20:11:37.082Z,13.07
2018-06-23T20:14:05.431Z,11.60
2018-06-23T20:16:35.163Z,8.30
2018-06-23T20:19:04.002Z,10.80
2018-06-23T20:21:32.463Z,11.90
2018-06-23T20:24:00.782Z,8.07
2018-06-23T20:26:29.418Z,8.23
2018-06-23T20:28:57.718Z,9.13
2018-06-23T20:31:25.990Z,9.07
2018-06-23T20:33:54.254Z,10.03
2018-06-23T20:36:22.542Z,9.53
2018-06-23T20:38:50.877Z,11.70
2018-06-23T20:41:19.248Z,7.97
2018-06-23T20:43:47.563Z,8.37
2018-06-23T20:46:15.877Z,9.37
2018-06-23T20:48:44.489Z,6.87
2018-06-23T20:51:13.559Z,7.77
2018-06-23T20:53:41.824Z,7.97
2018-06-23T20:56:10.139Z,8.53
2018-06-23T20:58:40.470Z,9.00
2018-06-23T21:01:09.918Z,9.93
2018-06-23T21:03:38.030Z,7.47
2018-06-23T21:06:07.432Z,8.50
2018-06-23T21:08:35.818Z,8.03
2018-06-23T21:11:06.294Z,8.27
2018-06-23T21:13:34.738Z,11.23
2018-06-23T21:16:06.280Z,9.40
2018-06-23T21:18:34.568Z,11.00
2018-06-23T21:21:03.428Z,11.50
2018-06-23T21:23:32.131Z,13.43
2018-06-23T21:26:00.417Z,11.30
2018-06-23T21:28:28.706Z,11.27
2018-06-23T21:30:57.060Z,12.93
2018-06-23T21:33:25.374Z,9.23
2018-06-23T21:35:54.051Z,10.50
2018-06-23T21:38:24.337Z,12.57
2018-06-23T21:40:52.638Z,11.23
2018-06-23T21:43:20.907Z,11.47
2018-06-23T21:45:49.177Z,9.70
2018-06-23T21:48:17.418Z,12.27
2018-06-23T21:50:46.190Z,11.30
2018-06-23T21:53:14.475Z,12.03
2018-06-23T21:55:49.222Z,9.20
2018-06-23T21:58:17.762Z,7.03
2018-06-23T22:00:46.262Z,11.50
2018-06-23T22:03:15.550Z,8.97
2018-06-23T22:05:43.835Z,9.60
2018-06-23T22:08:13.257Z,8.70
2018-06-23T22:10:41.758Z,14.07
2018-06-23T22:13:10.050Z,13.90
2018-06-23T22:15:41.663Z,12.40
2018-06-23T22:18:15.131Z,11.13
2018-06-23T22:20:45.366Z,13.10
2018-06-23T22:23:13.639Z,11.93
2018-06-23T22:25:41.906Z,10.37
2018-06-23T22:28:11.549Z,14.13
2018-06-23T22:30:40.071Z,11.87
2018-06-23T22:33:11.594Z,12.13
2018-06-23T22:35:41.301Z,9.40
2018-06-23T22:38:09.574Z,9.50
2018-06-23T22:40:37.943Z,9.27
2018-06-23T22:43:06.243Z,8.83
2018-06-23T22:45:34.518Z,9.87
2018-06-23T22:48:02.896Z,10.83
2018-06-23T22:50:34.898Z,12.27
2018-06-23T22:53:03.814Z,10.57
2018-06-23T22:55:32.062Z,9.13
2018-06-23T22:58:00.338Z,8.90
2018-06-23T23:00:28.615Z,9.83
2018-06-23T23:02:56.889Z,13.37
2018-06-23T23:05:25.138Z,9.30
2018-06-23T23:07:54.181Z,11.13
2018-06-23T23:10:26.043Z,9.80
2018-06-23T23:12:54.261Z,9.80
2018-06-23T23:15:22.527Z,6.77
2018-06-23T23:17:50.798Z,7.57
2018-06-23T23:20:19.084Z,10.30
2018-06-23T23:22:47.374Z,8.70
2018-06-23T23:25:15.734Z,6.77
2018-06-23T23:27:44.175Z,6.57
2018-06-23T23:30:14.110Z,12.13
2018-06-23T23:32:42.398Z,10.67
2018-06-23T23:35:10.674Z,7.57
2018-06-23T23:37:38.719Z,7.90
2018-06-23T23:40:09.990Z,7.30
2018-06-23T23:42:38.309Z,9.27
2018-06-23T23:45:06.583Z,10.47
2018-06-23T23:47:37.327Z,7.77
2018-06-23T23:50:05.768Z,9.40
2018-06-23T23:52:34.051Z,10.90
2018-06-23T23:55:02.331Z,11.87
2018-06-23T23:57:30.637Z,7.23
2018-06-23T23:59:58.902Z,7.23
